sensor_id;sensor_type;location;lat;lon;timestamp;temperature;humidity
72576;DHT22;60613;48.658;2.328;2023-04-03T06:02:37;21.00;35.10
72576;DHT22;60613;48.658;2.328;2023-04-03T06:05:02;21.10;36.10
72576;DHT22;60613;48.658;2.328;2023-04-03T06:07:28;21.10;36.00
72576;DHT22;60613;48.658;2.328;2023-04-03T06:09:56;21.10;36.00
72576;DHT22;60613;48.658;2.328;2023-04-03T06:12:22;21.10;35.90
72576;DHT22;60613;48.658;2.328;2023-04-03T06:14:48;21.10;35.80
72576;DHT22;60613;48.658;2.328;2023-04-03T06:17:17;21.10;35.80
72576;DHT22;60613;48.658;2.328;2023-04-03T06:19:43;21.10;35.70
72576;DHT22;60613;48.658;2.328;2023-04-03T06:22:09;21.20;35.70
72576;DHT22;60613;48.658;2.328;2023-04-03T06:24:37;21.20;35.60
72576;DHT22;60613;48.658;2.328;2023-04-03T06:27:03;21.20;35.60
72576;DHT22;60613;48.658;2.328;2023-04-03T06:29:28;21.20;35.60
72576;DHT22;60613;48.658;2.328;2023-04-03T06:31:55;21.20;35.70
72576;DHT22;60613;48.658;2.328;2023-04-03T06:34:20;21.20;35.60
72576;DHT22;60613;48.658;2.328;2023-04-03T06:36:46;21.20;35.50
72576;DHT22;60613;48.658;2.328;2023-04-03T06:39:17;21.20;35.50
72576;DHT22;60613;48.658;2.328;2023-04-03T06:41:45;21.30;35.50
72576;DHT22;60613;48.658;2.328;2023-04-03T06:44:11;21.30;35.40
72576;DHT22;60613;48.658;2.328;2023-04-03T06:46:38;21.30;35.50
72576;DHT22;60613;48.658;2.328;2023-04-03T06:49:05;21.30;35.40
72576;DHT22;60613;48.658;2.328;2023-04-03T06:51:32;21.30;35.40
72576;DHT22;60613;48.658;2.328;2023-04-03T06:53:59;21.30;35.20
72576;DHT22;60613;48.658;2.328;2023-04-03T06:56:25;21.40;35.30
72576;DHT22;60613;48.658;2.328;2023-04-03T06:58:52;21.40;35.10
72576;DHT22;60613;48.658;2.328;2023-04-03T07:01:20;21.40;35.10
72576;DHT22;60613;48.658;2.328;2023-04-03T07:03:47;21.30;35.20
72576;DHT22;60613;48.658;2.328;2023-04-03T07:06:17;21.40;35.10
72576;DHT22;60613;48.658;2.328;2023-04-03T07:08:44;21.30;35.20
72576;DHT22;60613;48.658;2.328;2023-04-03T07:11:11;21.30;35.10
72576;DHT22;60613;48.658;2.328;2023-04-03T07:13:37;21.30;35.50
72576;DHT22;60613;48.658;2.328;2023-04-03T07:16:03;21.40;35.20
72576;DHT22;60613;48.658;2.328;2023-04-03T07:18:31;21.30;35.10
72576;DHT22;60613;48.658;2.328;2023-04-03T07:20:57;21.30;35.10
72576;DHT22;60613;48.658;2.328;2023-04-03T07:23:23;21.30;35.10
72576;DHT22;60613;48.658;2.328;2023-04-03T07:25:50;21.40;35.20
72576;DHT22;60613;48.658;2.328;2023-04-03T07:28:18;21.40;35.40
72576;DHT22;60613;48.658;2.328;2023-04-03T07:30:51;21.40;31.90
72576;DHT22;60613;48.658;2.328;2023-04-03T07:33:18;21.00;29.30
72576;DHT22;60613;48.658;2.328;2023-04-03T07:35:44;20.50;29.10
72576;DHT22;60613;48.658;2.328;2023-04-03T07:38:11;20.30;29.50
72576;DHT22;60613;48.658;2.328;2023-04-03T07:40:37;20.00;29.50
72576;DHT22;60613;48.658;2.328;2023-04-03T07:43:04;19.90;29.70
72576;DHT22;60613;48.658;2.328;2023-04-03T07:45:30;19.70;29.90
72576;DHT22;60613;48.658;2.328;2023-04-03T07:47:56;19.60;30.00
72576;DHT22;60613;48.658;2.328;2023-04-03T07:50:22;19.50;30.20
72576;DHT22;60613;48.658;2.328;2023-04-03T07:52:48;19.40;30.30
72576;DHT22;60613;48.658;2.328;2023-04-03T07:55:16;19.40;31.50
72576;DHT22;60613;48.658;2.328;2023-04-03T07:57:42;19.40;30.70
72576;DHT22;60613;48.658;2.328;2023-04-03T08:00:08;19.30;30.40
72576;DHT22;60613;48.658;2.328;2023-04-03T08:02:35;19.30;31.80
72576;DHT22;60613;48.658;2.328;2023-04-03T08:05:00;19.50;33.80
72576;DHT22;60613;48.658;2.328;2023-04-03T08:07:26;19.80;34.40
72576;DHT22;60613;48.658;2.328;2023-04-03T08:09:52;20.00;34.90
72576;DHT22;60613;48.658;2.328;2023-04-03T08:12:17;20.20;35.10
72576;DHT22;60613;48.658;2.328;2023-04-03T08:14:43;20.40;35.20
72576;DHT22;60613;48.658;2.328;2023-04-03T08:17:09;20.50;35.50
72576;DHT22;60613;48.658;2.328;2023-04-03T08:19:38;20.60;35.00
72576;DHT22;60613;48.658;2.328;2023-04-03T08:22:04;20.70;34.70
72576;DHT22;60613;48.658;2.328;2023-04-03T08:24:31;20.80;35.00
72576;DHT22;60613;48.658;2.328;2023-04-03T08:26:57;20.90;35.30
72576;DHT22;60613;48.658;2.328;2023-04-03T08:29:23;21.00;35.70
72576;DHT22;60613;48.658;2.328;2023-04-03T08:31:49;21.10;36.50
72576;DHT22;60613;48.658;2.328;2023-04-03T08:34:15;21.10;37.00
72576;DHT22;60613;48.658;2.328;2023-04-03T08:36:41;21.20;36.70
72576;DHT22;60613;48.658;2.328;2023-04-03T08:39:07;21.30;36.70
72576;DHT22;60613;48.658;2.328;2023-04-03T08:41:34;21.30;36.30
72576;DHT22;60613;48.658;2.328;2023-04-03T08:44:18;21.40;36.10
72576;DHT22;60613;48.658;2.328;2023-04-03T08:52:11;21.50;35.30
72576;DHT22;60613;48.658;2.328;2023-04-03T08:57:13;21.50;35.30
72576;DHT22;60613;48.658;2.328;2023-04-03T08:59:39;21.60;35.10
72576;DHT22;60613;48.658;2.328;2023-04-03T09:02:24;21.60;36.50
72576;DHT22;60613;48.658;2.328;2023-04-03T09:04:52;21.60;35.20
72576;DHT22;60613;48.658;2.328;2023-04-03T09:07:33;21.70;34.70
72576;DHT22;60613;48.658;2.328;2023-04-03T09:10:00;21.70;34.70
72576;DHT22;60613;48.658;2.328;2023-04-03T09:12:38;21.70;34.70
72576;DHT22;60613;48.658;2.328;2023-04-03T09:15:10;21.70;34.60
72576;DHT22;60613;48.658;2.328;2023-04-03T09:17:49;21.80;34.60
72576;DHT22;60613;48.658;2.328;2023-04-03T09:20:24;21.70;34.70
72576;DHT22;60613;48.658;2.328;2023-04-03T09:22:52;21.70;34.70
72576;DHT22;60613;48.658;2.328;2023-04-03T09:25:33;21.70;35.20
72576;DHT22;60613;48.658;2.328;2023-04-03T09:28:02;21.70;35.30
72576;DHT22;60613;48.658;2.328;2023-04-03T09:30:28;21.70;35.00
72576;DHT22;60613;48.658;2.328;2023-04-03T09:32:56;21.70;35.10
72576;DHT22;60613;48.658;2.328;2023-04-03T09:35:31;21.70;34.80
72576;DHT22;60613;48.658;2.328;2023-04-03T09:41:14;21.70;34.90
72576;DHT22;60613;48.658;2.328;2023-04-03T09:43:52;21.70;34.80
72576;DHT22;60613;48.658;2.328;2023-04-03T09:46:32;21.70;34.90
72576;DHT22;60613;48.658;2.328;2023-04-03T09:49:02;21.80;34.50
72576;DHT22;60613;48.658;2.328;2023-04-03T09:51:28;21.80;34.50
72576;DHT22;60613;48.658;2.328;2023-04-03T09:53:55;21.70;34.40
72576;DHT22;60613;48.658;2.328;2023-04-03T09:59:12;21.80;34.20
72576;DHT22;60613;48.658;2.328;2023-04-03T10:01:43;21.80;34.10
72576;DHT22;60613;48.658;2.328;2023-04-03T10:04:21;21.90;34.00
72576;DHT22;60613;48.658;2.328;2023-04-03T10:06:53;21.90;34.00
72576;DHT22;60613;48.658;2.328;2023-04-03T10:09:24;21.90;34.00
72576;DHT22;60613;48.658;2.328;2023-04-03T10:12:11;21.90;34.10
72576;DHT22;60613;48.658;2.328;2023-04-03T10:15:00;21.90;34.30
72576;DHT22;60613;48.658;2.328;2023-04-03T10:20:40;22.00;34.20
72576;DHT22;60613;48.658;2.328;2023-04-03T10:23:24;22.00;34.20
72576;DHT22;60613;48.658;2.328;2023-04-03T10:28:51;22.10;34.10
72576;DHT22;60613;48.658;2.328;2023-04-03T10:31:34;22.20;34.00
72576;DHT22;60613;48.658;2.328;2023-04-03T10:39:19;22.30;33.70
72576;DHT22;60613;48.658;2.328;2023-04-03T10:52:54;22.40;33.70
72576;DHT22;60613;48.658;2.328;2023-04-03T10:55:34;22.30;33.80
72576;DHT22;60613;48.658;2.328;2023-04-03T10:58:02;22.20;33.70
72576;DHT22;60613;48.658;2.328;2023-04-03T11:00:44;22.10;34.00
72576;DHT22;60613;48.658;2.328;2023-04-03T11:03:20;22.10;34.20
72576;DHT22;60613;48.658;2.328;2023-04-03T11:05:52;22.00;34.30
72576;DHT22;60613;48.658;2.328;2023-04-03T11:08:29;22.00;34.50
72576;DHT22;60613;48.658;2.328;2023-04-03T11:11:03;22.00;34.60
72576;DHT22;60613;48.658;2.328;2023-04-03T11:16:08;22.00;34.60
72576;DHT22;60613;48.658;2.328;2023-04-03T11:18:44;21.90;34.70
72576;DHT22;60613;48.658;2.328;2023-04-03T11:21:29;21.90;34.60
72576;DHT22;60613;48.658;2.328;2023-04-03T11:23:57;21.90;34.50
72576;DHT22;60613;48.658;2.328;2023-04-03T11:26:27;21.90;34.50
72576;DHT22;60613;48.658;2.328;2023-04-03T11:29:09;21.90;34.60
72576;DHT22;60613;48.658;2.328;2023-04-03T11:34:46;22.00;34.60
72576;DHT22;60613;48.658;2.328;2023-04-03T11:37:27;22.10;34.40
72576;DHT22;60613;48.658;2.328;2023-04-03T11:40:00;22.20;34.60
72576;DHT22;60613;48.658;2.328;2023-04-03T11:42:33;22.30;34.60
72576;DHT22;60613;48.658;2.328;2023-04-03T11:47:58;22.30;34.20
72576;DHT22;60613;48.658;2.328;2023-04-03T11:55:54;22.50;33.80
72576;DHT22;60613;48.658;2.328;2023-04-03T11:58:28;22.50;33.90
72576;DHT22;60613;48.658;2.328;2023-04-03T12:00:59;22.50;33.80
72576;DHT22;60613;48.658;2.328;2023-04-03T12:08:54;22.50;33.80
72576;DHT22;60613;48.658;2.328;2023-04-03T12:16:23;22.50;33.90
72576;DHT22;60613;48.658;2.328;2023-04-03T12:38:37;22.60;34.40
72576;DHT22;60613;48.658;2.328;2023-04-03T12:41:46;22.60;34.20
72576;DHT22;60613;48.658;2.328;2023-04-03T12:46:43;22.60;34.60
72576;DHT22;60613;48.658;2.328;2023-04-03T12:51:54;22.50;34.20
72576;DHT22;60613;48.658;2.328;2023-04-03T12:54:27;22.40;34.20
72576;DHT22;60613;48.658;2.328;2023-04-03T12:57:32;22.40;34.10
72576;DHT22;60613;48.658;2.328;2023-04-03T12:59:58;22.40;34.30
72576;DHT22;60613;48.658;2.328;2023-04-03T13:02:29;22.40;34.40
72576;DHT22;60613;48.658;2.328;2023-04-03T13:04:58;22.40;34.40
72576;DHT22;60613;48.658;2.328;2023-04-03T13:07:31;22.40;34.50
72576;DHT22;60613;48.658;2.328;2023-04-03T13:10:13;22.40;34.50
72576;DHT22;60613;48.658;2.328;2023-04-03T13:12:48;22.40;34.20
72576;DHT22;60613;48.658;2.328;2023-04-03T13:15:30;22.40;34.20
72576;DHT22;60613;48.658;2.328;2023-04-03T13:18:04;22.40;34.30
72576;DHT22;60613;48.658;2.328;2023-04-03T13:20:33;22.40;34.30
72576;DHT22;60613;48.658;2.328;2023-04-03T13:23:07;22.40;34.50
72576;DHT22;60613;48.658;2.328;2023-04-03T13:25:36;22.40;34.30
72576;DHT22;60613;48.658;2.328;2023-04-03T13:28:05;22.40;34.30
72576;DHT22;60613;48.658;2.328;2023-04-03T13:30:37;22.40;34.20
72576;DHT22;60613;48.658;2.328;2023-04-03T13:33:05;22.40;34.30
72576;DHT22;60613;48.658;2.328;2023-04-03T13:35:36;22.50;34.30
72576;DHT22;60613;48.658;2.328;2023-04-03T13:38:22;22.50;34.20
72576;DHT22;60613;48.658;2.328;2023-04-03T13:40:54;22.50;34.30
72576;DHT22;60613;48.658;2.328;2023-04-03T13:43:25;22.50;34.20
72576;DHT22;60613;48.658;2.328;2023-04-03T13:46:25;22.50;34.10
72576;DHT22;60613;48.658;2.328;2023-04-03T13:48:53;22.50;34.20
72576;DHT22;60613;48.658;2.328;2023-04-03T13:51:25;22.50;34.30
72576;DHT22;60613;48.658;2.328;2023-04-03T13:56:39;22.40;34.00
72576;DHT22;60613;48.658;2.328;2023-04-03T14:06:46;22.50;33.60
72576;DHT22;60613;48.658;2.328;2023-04-03T14:09:12;22.40;33.10
72576;DHT22;60613;48.658;2.328;2023-04-03T14:11:38;22.40;33.20
72576;DHT22;60613;48.658;2.328;2023-04-03T14:14:17;22.40;33.00
72576;DHT22;60613;48.658;2.328;2023-04-03T14:16:47;22.30;33.00
72576;DHT22;60613;48.658;2.328;2023-04-03T14:19:25;22.30;33.30
72576;DHT22;60613;48.658;2.328;2023-04-03T14:21:53;22.20;33.60
72576;DHT22;60613;48.658;2.328;2023-04-03T14:24:20;22.20;33.70
72576;DHT22;60613;48.658;2.328;2023-04-03T14:26:46;22.20;33.90
72576;DHT22;60613;48.658;2.328;2023-04-03T14:29:12;22.20;33.90
72576;DHT22;60613;48.658;2.328;2023-04-03T14:31:40;22.20;33.80
72576;DHT22;60613;48.658;2.328;2023-04-03T14:34:06;22.20;34.00
72576;DHT22;60613;48.658;2.328;2023-04-03T14:36:32;22.20;34.00
72576;DHT22;60613;48.658;2.328;2023-04-03T14:38:58;22.20;34.00
72576;DHT22;60613;48.658;2.328;2023-04-03T14:41:25;22.20;34.00
72576;DHT22;60613;48.658;2.328;2023-04-03T14:43:52;22.20;33.90
72576;DHT22;60613;48.658;2.328;2023-04-03T14:46:25;22.30;34.00
72576;DHT22;60613;48.658;2.328;2023-04-03T14:48:52;22.20;34.00
72576;DHT22;60613;48.658;2.328;2023-04-03T14:51:17;22.20;34.30
72576;DHT22;60613;48.658;2.328;2023-04-03T14:53:44;22.20;34.20
72576;DHT22;60613;48.658;2.328;2023-04-03T14:56:19;22.20;34.10
72576;DHT22;60613;48.658;2.328;2023-04-03T14:58:48;22.20;34.10
72576;DHT22;60613;48.658;2.328;2023-04-03T15:01:17;22.20;34.10
72576;DHT22;60613;48.658;2.328;2023-04-03T15:03:42;22.30;34.10
72576;DHT22;60613;48.658;2.328;2023-04-03T15:06:11;22.30;33.90
72576;DHT22;60613;48.658;2.328;2023-04-03T15:08:37;22.30;34.10
72576;DHT22;60613;48.658;2.328;2023-04-03T15:11:02;22.30;34.10
72576;DHT22;60613;48.658;2.328;2023-04-03T15:13:28;22.30;33.90
72576;DHT22;60613;48.658;2.328;2023-04-03T15:15:54;22.30;33.90
72576;DHT22;60613;48.658;2.328;2023-04-03T15:18:22;22.30;34.00
72576;DHT22;60613;48.658;2.328;2023-04-03T15:20:48;22.30;33.90
72576;DHT22;60613;48.658;2.328;2023-04-03T15:23:15;22.30;33.90
72576;DHT22;60613;48.658;2.328;2023-04-03T15:25:48;22.30;33.90
72576;DHT22;60613;48.658;2.328;2023-04-03T15:28:35;22.40;33.90
72576;DHT22;60613;48.658;2.328;2023-04-03T15:31:01;22.30;33.90
72576;DHT22;60613;48.658;2.328;2023-04-03T15:33:27;22.30;33.80
72576;DHT22;60613;48.658;2.328;2023-04-03T15:35:53;22.30;33.80
72576;DHT22;60613;48.658;2.328;2023-04-03T15:38:19;22.30;33.90
72576;DHT22;60613;48.658;2.328;2023-04-03T15:40:45;22.30;33.80
72576;DHT22;60613;48.658;2.328;2023-04-03T15:43:12;22.20;33.90
72576;DHT22;60613;48.658;2.328;2023-04-03T15:45:39;22.30;33.90
72576;DHT22;60613;48.658;2.328;2023-04-03T15:48:05;22.20;33.80
72576;DHT22;60613;48.658;2.328;2023-04-03T15:50:32;22.20;33.60
72576;DHT22;60613;48.658;2.328;2023-04-03T15:52:58;22.30;33.60
72576;DHT22;60613;48.658;2.328;2023-04-03T15:55:25;22.40;33.40
72576;DHT22;60613;48.658;2.328;2023-04-03T15:57:52;22.40;33.50
72576;DHT22;60613;48.658;2.328;2023-04-03T16:00:19;22.40;33.50
72576;DHT22;60613;48.658;2.328;2023-04-03T16:02:46;22.30;33.30
72576;DHT22;60613;48.658;2.328;2023-04-03T16:05:13;22.40;33.90
72576;DHT22;60613;48.658;2.328;2023-04-03T16:07:40;22.40;33.30
72576;DHT22;60613;48.658;2.328;2023-04-03T16:10:09;22.40;33.20
72576;DHT22;60613;48.658;2.328;2023-04-03T16:12:35;22.50;34.40
72576;DHT22;60613;48.658;2.328;2023-04-03T16:15:02;22.50;33.20
72576;DHT22;60613;48.658;2.328;2023-04-03T16:17:28;22.50;33.20
72576;DHT22;60613;48.658;2.328;2023-04-03T16:19:55;22.50;33.10
72576;DHT22;60613;48.658;2.328;2023-04-03T16:22:24;22.60;33.40
72576;DHT22;60613;48.658;2.328;2023-04-03T16:24:51;22.70;33.30
72576;DHT22;60613;48.658;2.328;2023-04-03T16:27:17;22.70;33.20
72576;DHT22;60613;48.658;2.328;2023-04-03T16:29:42;22.70;33.20
72576;DHT22;60613;48.658;2.328;2023-04-03T16:32:08;22.80;33.20
72576;DHT22;60613;48.658;2.328;2023-04-03T16:34:34;22.80;33.30
72576;DHT22;60613;48.658;2.328;2023-04-03T16:37:00;22.80;33.40
72576;DHT22;60613;48.658;2.328;2023-04-03T16:39:26;22.70;33.30
72576;DHT22;60613;48.658;2.328;2023-04-03T16:41:51;22.70;33.40
72576;DHT22;60613;48.658;2.328;2023-04-03T16:44:17;22.70;33.50
72576;DHT22;60613;48.658;2.328;2023-04-03T16:46:43;22.70;33.60
72576;DHT22;60613;48.658;2.328;2023-04-03T16:49:08;22.70;33.40
72576;DHT22;60613;48.658;2.328;2023-04-03T16:51:34;22.70;33.50
72576;DHT22;60613;48.658;2.328;2023-04-03T16:54:00;22.70;33.10
72576;DHT22;60613;48.658;2.328;2023-04-03T16:56:26;22.60;34.60
72576;DHT22;60613;48.658;2.328;2023-04-03T16:58:54;22.60;33.50
72576;DHT22;60613;48.658;2.328;2023-04-03T17:01:21;22.60;33.70
72576;DHT22;60613;48.658;2.328;2023-04-03T17:03:47;22.60;34.20
72576;DHT22;60613;48.658;2.328;2023-04-03T17:06:19;22.50;34.70
72576;DHT22;60613;48.658;2.328;2023-04-03T17:08:47;22.50;35.20
72576;DHT22;60613;48.658;2.328;2023-04-03T17:11:14;22.50;35.40
72576;DHT22;60613;48.658;2.328;2023-04-03T17:13:40;22.50;36.10
72576;DHT22;60613;48.658;2.328;2023-04-03T17:16:09;22.50;35.60
72576;DHT22;60613;48.658;2.328;2023-04-03T17:18:36;22.60;35.90
72576;DHT22;60613;48.658;2.328;2023-04-03T17:21:02;22.50;36.00
72576;DHT22;60613;48.658;2.328;2023-04-03T17:23:28;22.50;36.00
72576;DHT22;60613;48.658;2.328;2023-04-03T17:25:55;22.50;36.00
72576;DHT22;60613;48.658;2.328;2023-04-03T17:28:22;22.50;36.00
72576;DHT22;60613;48.658;2.328;2023-04-03T17:30:53;22.50;36.00
72576;DHT22;60613;48.658;2.328;2023-04-03T17:33:19;22.50;35.60
72576;DHT22;60613;48.658;2.328;2023-04-03T17:35:44;22.50;35.20
72576;DHT22;60613;48.658;2.328;2023-04-03T17:38:10;22.50;35.20
72576;DHT22;60613;48.658;2.328;2023-04-03T17:40:36;22.50;34.90
72576;DHT22;60613;48.658;2.328;2023-04-03T17:43:01;22.50;34.80
72576;DHT22;60613;48.658;2.328;2023-04-03T17:45:27;22.50;36.00
72576;DHT22;60613;48.658;2.328;2023-04-03T17:47:53;22.50;34.60
72576;DHT22;60613;48.658;2.328;2023-04-03T17:50:19;22.50;34.60
72576;DHT22;60613;48.658;2.328;2023-04-03T17:52:44;22.40;34.80
72576;DHT22;60613;48.658;2.328;2023-04-03T17:55:10;22.50;34.70
72576;DHT22;60613;48.658;2.328;2023-04-03T17:57:37;22.40;34.30
72576;DHT22;60613;48.658;2.328;2023-04-03T18:00:03;22.50;34.20
72576;DHT22;60613;48.658;2.328;2023-04-03T18:02:30;22.40;34.10
72576;DHT22;60613;48.658;2.328;2023-04-03T18:04:56;22.40;34.20
72576;DHT22;60613;48.658;2.328;2023-04-03T18:07:23;22.40;34.30
72576;DHT22;60613;48.658;2.328;2023-04-03T18:09:50;22.30;34.20
72576;DHT22;60613;48.658;2.328;2023-04-03T18:12:16;22.40;34.20
72576;DHT22;60613;48.658;2.328;2023-04-03T18:14:44;22.40;34.20
72576;DHT22;60613;48.658;2.328;2023-04-03T18:17:10;22.40;33.80
72576;DHT22;60613;48.658;2.328;2023-04-03T18:19:36;22.40;34.00
72576;DHT22;60613;48.658;2.328;2023-04-03T18:22:12;22.30;34.40
72576;DHT22;60613;48.658;2.328;2023-04-03T18:24:39;22.40;34.30
72576;DHT22;60613;48.658;2.328;2023-04-03T18:27:09;22.40;34.40
72576;DHT22;60613;48.658;2.328;2023-04-03T18:29:37;22.30;34.40
72576;DHT22;60613;48.658;2.328;2023-04-03T18:32:06;22.30;34.40
72576;DHT22;60613;48.658;2.328;2023-04-03T18:34:33;22.30;34.30
72576;DHT22;60613;48.658;2.328;2023-04-03T18:36:59;22.30;34.20
72576;DHT22;60613;48.658;2.328;2023-04-03T18:39:24;22.20;34.30
72576;DHT22;60613;48.658;2.328;2023-04-03T18:41:50;22.20;34.30
72576;DHT22;60613;48.658;2.328;2023-04-03T18:44:18;22.20;34.20
72576;DHT22;60613;48.658;2.328;2023-04-03T18:46:45;22.20;34.20
72576;DHT22;60613;48.658;2.328;2023-04-03T18:49:12;22.20;34.10
72576;DHT22;60613;48.658;2.328;2023-04-03T18:51:39;22.30;34.10
72576;DHT22;60613;48.658;2.328;2023-04-03T18:54:05;22.30;34.10
72576;DHT22;60613;48.658;2.328;2023-04-03T18:56:34;22.30;34.10
72576;DHT22;60613;48.658;2.328;2023-04-03T18:59:00;22.30;34.10
